Time;durP1;ratioP1;P1;durP2;ratioP2;P2;SDS_P1;SDS_P2;PMS_P1;PMS_P2;Temp;Humidity;BMP_temperature;BMP_pressure;BME280_temperature;BME280_humidity;BME280_pressure;Samples;Min_cycle;Max_cycle;Signal;HPM_P1;HPM_P2
2023/03/22 00:00:26;;;;;;;4.30;1.20;;;20.00;61.30;;;;;;5053290;28;20041;-69
2023/03/22 00:02:52;;;;;;;3.28;0.98;;;20.00;61.30;;;;;;5034636;28;20067;-69
2023/03/22 00:05:18;;;;;;;2.45;0.95;;;20.00;61.30;;;;;;5052721;28;20044;-69
2023/03/22 00:07:43;;;;;;;2.65;1.00;;;20.00;61.30;;;;;;5035211;28;20049;-69
2023/03/22 00:10:10;;;;;;;2.58;1.02;;;20.00;61.30;;;;;;5051717;28;20135;-69
2023/03/22 00:12:35;;;;;;;2.28;1.08;;;19.90;61.20;;;;;;5052734;28;20400;-69
2023/03/22 00:15:01;;;;;;;2.63;1.00;;;19.90;61.20;;;;;;5034972;28;20511;-69
2023/03/22 00:17:27;;;;;;;2.47;0.90;;;19.90;61.10;;;;;;5051880;28;20484;-69
2023/03/22 00:19:53;;;;;;;2.58;1.10;;;19.90;61.10;;;;;;5034670;28;20409;-69
2023/03/22 00:22:19;;;;;;;2.25;1.05;;;19.90;61.10;;;;;;5033990;28;20052;-69
2023/03/22 00:24:45;;;;;;;2.47;1.25;;;19.90;61.10;;;;;;5052962;28;20094;-69
2023/03/22 00:27:10;;;;;;;3.42;1.10;;;19.90;61.10;;;;;;5052380;28;20045;-69
2023/03/22 00:29:36;;;;;;;2.53;1.10;;;19.90;61.10;;;;;;5051826;28;20075;-69
2023/03/22 00:32:03;;;;;;;1.75;1.00;;;19.90;61.10;;;;;;5034477;28;20052;-69
2023/03/22 00:34:31;;;;;;;1.90;1.23;;;19.90;61.10;;;;;;5052477;28;20045;-68
2023/03/22 00:36:57;;;;;;;2.70;1.10;;;19.90;61.10;;;;;;5051723;28;20080;-68
2023/03/22 00:39:23;;;;;;;2.42;1.10;;;19.90;61.00;;;;;;5052405;28;20072;-69
2023/03/22 00:41:50;;;;;;;2.75;1.17;;;19.80;61.00;;;;;;5068858;28;20032;-69
2023/03/22 00:44:15;;;;;;;3.10;0.95;;;19.80;61.00;;;;;;5071703;28;20051;-69
2023/03/22 00:46:41;;;;;;;1.80;1.08;;;19.80;61.00;;;;;;5054372;28;20388;-69
2023/03/22 00:49:06;;;;;;;3.53;1.10;;;19.80;61.00;;;;;;5071903;28;20051;-68
2023/03/22 00:51:32;;;;;;;2.70;1.17;;;19.80;60.90;;;;;;5053083;28;20658;-69
2023/03/22 00:53:57;;;;;;;2.67;0.82;;;19.80;61.00;;;;;;5072089;28;20131;-69
2023/03/22 00:56:24;;;;;;;2.65;1.00;;;19.90;61.00;;;;;;5076529;28;20044;-69
2023/03/22 00:58:50;;;;;;;2.08;1.30;;;19.80;60.90;;;;;;5053641;28;20468;-69
2023/03/22 01:01:15;;;;;;;2.42;1.15;;;19.80;60.90;;;;;;5071807;28;20043;-69
2023/03/22 01:03:41;;;;;;;2.85;1.02;;;19.80;60.90;;;;;;5063563;28;20040;-69
2023/03/22 01:06:07;;;;;;;2.38;1.00;;;19.80;60.90;;;;;;5050769;28;20055;-69
2023/03/22 01:08:37;;;;;;;2.60;1.02;;;19.80;60.90;;;;;;5052229;28;20053;-68
2023/03/22 01:11:03;;;;;;;2.05;1.20;;;19.80;60.80;;;;;;5033684;28;20098;-68
2023/03/22 01:13:29;;;;;;;1.88;1.15;;;19.70;60.80;;;;;;5050986;28;20052;-68
2023/03/22 01:15:55;;;;;;;2.30;0.95;;;19.80;60.90;;;;;;5052085;28;20045;-68
2023/03/22 01:18:20;;;;;;;2.17;1.20;;;19.70;60.80;;;;;;5051859;28;20120;-69
2023/03/22 01:20:46;;;;;;;2.20;1.10;;;19.70;60.80;;;;;;5051327;28;20045;-69
2023/03/22 01:23:11;;;;;;;1.98;1.08;;;19.70;60.80;;;;;;5051832;28;20037;-69
2023/03/22 01:25:37;;;;;;;2.35;1.05;;;19.80;60.90;;;;;;5051271;28;20120;-69
2023/03/22 01:28:03;;;;;;;2.83;0.98;;;19.70;60.80;;;;;;5051715;28;20057;-69
2023/03/22 01:30:28;;;;;;;1.65;0.90;;;19.70;60.80;;;;;;5052231;28;20044;-68
2023/03/22 01:32:54;;;;;;;2.78;1.08;;;19.70;60.80;;;;;;5051346;28;20052;-68
2023/03/22 01:35:20;;;;;;;2.67;1.00;;;19.70;60.80;;;;;;5051431;28;20095;-68
2023/03/22 01:37:45;;;;;;;3.65;1.20;;;19.70;60.80;;;;;;5033907;28;20041;-68
2023/03/22 01:40:11;;;;;;;2.08;0.90;;;19.70;60.80;;;;;;5050655;28;20036;-69
2023/03/22 01:42:37;;;;;;;1.58;0.75;;;19.70;60.80;;;;;;5052144;28;20037;-68
2023/03/22 01:45:17;;;;;;;2.08;1.05;;;19.70;60.80;;;;;;5051688;28;20197;-69
2023/03/22 01:47:58;;;;;;;2.90;1.00;;;19.70;60.70;;;;;;5032869;28;20053;-68
2023/03/22 01:50:23;;;;;;;2.08;1.08;;;19.70;60.70;;;;;;5035163;28;20076;-68
2023/03/22 01:52:49;;;;;;;2.30;0.90;;;19.70;60.80;;;;;;5055884;28;20111;-68
2023/03/22 01:55:17;;;;;;;2.65;0.82;;;19.70;60.80;;;;;;5036670;28;20484;-68
2023/03/22 01:57:43;;;;;;;1.77;0.82;;;19.70;60.70;;;;;;5021594;28;20049;-68
2023/03/22 02:00:14;;;;;;;3.22;1.10;;;19.70;60.70;;;;;;5021199;28;20475;-68
2023/03/22 02:02:41;;;;;;;2.45;0.90;;;19.60;61.30;;;;;;5054947;28;20033;-68
2023/03/22 02:05:07;;;;;;;3.20;1.00;;;19.60;60.60;;;;;;5037145;28;20431;-68
2023/03/22 02:07:33;;;;;;;1.73;0.88;;;19.60;60.60;;;;;;5055521;28;20049;-68
2023/03/22 02:09:58;;;;;;;1.63;0.70;;;19.60;60.70;;;;;;5021314;28;20053;-69
2023/03/22 02:12:42;;;;;;;1.80;0.80;;;19.60;60.60;;;;;;5075082;28;20565;-68
2023/03/22 02:15:11;;;;;;;1.50;0.70;;;19.60;60.60;;;;;;5054869;28;20938;-68
2023/03/22 02:17:52;;;;;;;2.17;1.00;;;19.60;60.60;;;;;;5037048;28;20048;-68
2023/03/22 02:20:40;;;;;;;3.45;1.10;;;19.60;60.60;;;;;;5056522;28;20083;-68
2023/03/22 02:23:45;;;;;;;2.45;1.10;;;19.60;60.60;;;;;;5036254;28;20045;-68
2023/03/22 02:26:22;;;;;;;2.97;1.20;;;19.60;60.60;;;;;;5045967;28;20033;-68
2023/03/22 02:29:02;;;;;;;1.90;0.77;;;19.60;60.60;;;;;;5055854;28;20171;-68
2023/03/22 02:31:34;;;;;;;2.42;0.98;;;19.60;60.60;;;;;;5056930;28;20048;-68
2023/03/22 02:34:14;;;;;;;1.40;0.70;;;19.50;60.50;;;;;;5074639;28;20119;-68
2023/03/22 02:37:13;;;;;;;2.03;1.00;;;19.60;60.60;;;;;;5061346;28;20120;-68
2023/03/22 02:39:47;;;;;;;2.88;0.90;;;19.50;60.50;;;;;;5036911;28;20087;-68
2023/03/22 02:42:24;;;;;;;2.45;0.98;;;19.50;60.40;;;;;;5036626;28;20049;-67
2023/03/22 02:45:11;;;;;;;2.63;0.85;;;19.50;60.40;;;;;;5019583;28;20052;-68
2023/03/22 02:47:40;;;;;;;1.73;0.93;;;19.50;60.40;;;;;;5056591;28;20045;-68
2023/03/22 02:50:19;;;;;;;1.70;0.80;;;19.50;60.40;;;;;;5055813;28;20055;-68
2023/03/22 02:52:50;;;;;;;1.80;0.70;;;19.50;60.50;;;;;;5056669;28;20455;-67
2023/03/22 02:55:47;;;;;;;1.50;0.80;;;19.50;60.40;;;;;;5040210;28;20047;-68
2023/03/22 02:58:20;;;;;;;1.20;0.60;;;19.50;60.40;;;;;;5050761;28;20064;-67
2023/03/22 03:00:45;;;;;;;2.22;0.95;;;19.50;60.50;;;;;;5048283;28;20037;-68
2023/03/22 03:03:11;;;;;;;1.95;0.80;;;19.50;60.50;;;;;;5035936;28;20103;-68
2023/03/22 03:05:39;;;;;;;2.50;1.00;;;19.50;60.50;;;;;;5052913;28;20116;-68
2023/03/22 03:08:05;;;;;;;3.15;1.17;;;19.50;60.50;;;;;;5036357;28;20076;-68
2023/03/22 03:10:30;;;;;;;1.88;0.80;;;19.50;60.50;;;;;;5036082;28;20078;-68
2023/03/22 03:12:57;;;;;;;1.45;0.75;;;19.50;60.50;;;;;;5035752;28;20044;-68
2023/03/22 03:15:23;;;;;;;1.42;0.80;;;19.50;60.50;;;;;;5036500;28;20040;-68
2023/03/22 03:18:06;;;;;;;2.70;0.98;;;19.50;60.50;;;;;;5052709;28;20041;-68
2023/03/22 03:20:51;;;;;;;1.35;0.60;;;19.40;60.50;;;;;;5053673;28;20132;-68
2023/03/22 03:23:40;;;;;;;2.00;0.70;;;19.40;60.50;;;;;;5053573;28;20140;-68
2023/03/22 03:26:11;;;;;;;1.52;0.80;;;19.40;60.50;;;;;;5037765;28;20045;-68
2023/03/22 03:29:29;;;;;;;1.73;0.95;;;19.40;60.50;;;;;;5036087;28;20489;-68
2023/03/22 03:32:17;;;;;;;2.08;0.80;;;19.40;60.40;;;;;;5037867;28;20135;-68
2023/03/22 03:34:44;;;;;;;;;;;19.40;60.50;;;;;;5036598;28;20075;-68
2023/03/22 03:37:34;;;;;;;1.98;0.77;;;19.40;60.40;;;;;;5053318;28;19927;-68
2023/03/22 03:40:10;;;;;;;3.78;0.80;;;19.40;60.50;;;;;;5024546;28;20057;-68
2023/03/22 03:42:36;;;;;;;1.95;0.60;;;19.40;60.50;;;;;;5035866;28;20052;-68
2023/03/22 03:45:02;;;;;;;3.55;0.80;;;19.40;60.50;;;;;;5019075;28;20037;-68
2023/03/22 03:47:28;;;;;;;2.08;0.90;;;19.40;60.50;;;;;;5034936;28;20095;-68
2023/03/22 03:49:54;;;;;;;1.20;0.60;;;19.40;60.50;;;;;;5035771;28;20090;-68
2023/03/22 03:52:23;;;;;;;2.22;0.75;;;19.40;60.50;;;;;;5018499;28;20045;-68
2023/03/22 03:54:49;;;;;;;1.92;0.77;;;19.40;60.60;;;;;;5052679;28;20052;-68
2023/03/22 03:57:15;;;;;;;3.08;0.80;;;19.40;60.60;;;;;;5035435;28;20037;-68
2023/03/22 03:59:41;;;;;;;2.08;0.70;;;19.40;60.50;;;;;;5053247;28;20049;-67
2023/03/22 04:02:06;;;;;;;1.65;0.70;;;19.40;60.50;;;;;;5045189;28;20131;-68
2023/03/22 04:04:33;;;;;;;2.13;0.80;;;19.40;61.20;;;;;;5073363;28;20373;-68
2023/03/22 04:06:59;;;;;;;2.10;0.82;;;19.40;60.50;;;;;;5072410;28;20052;-69
2023/03/22 04:09:27;;;;;;;2.75;0.70;;;19.40;60.50;;;;;;5054161;28;20048;-68
2023/03/22 04:11:53;;;;;;;1.77;0.82;;;19.40;60.50;;;;;;5054834;28;20047;-68
2023/03/22 04:14:19;;;;;;;1.60;0.70;;;19.40;60.50;;;;;;5072074;28;20427;-68
2023/03/22 04:16:45;;;;;;;2.35;0.90;;;19.40;60.50;;;;;;5071921;28;20075;-68
2023/03/22 04:19:11;;;;;;;1.92;0.80;;;19.40;60.50;;;;;;5072506;28;20117;-68
2023/03/22 04:21:36;;;;;;;1.70;0.88;;;19.40;60.50;;;;;;5071693;28;20037;-68
2023/03/22 04:24:02;;;;;;;2.42;0.88;;;19.40;60.60;;;;;;5072289;28;20037;-68
2023/03/22 04:26:27;;;;;;;2.05;0.65;;;19.50;60.60;;;;;;5072426;28;20043;-67
2023/03/22 04:28:53;;;;;;;1.85;0.80;;;19.50;60.50;;;;;;5072107;28;20110;-68
2023/03/22 04:31:18;;;;;;;1.70;0.70;;;19.50;60.50;;;;;;5068880;28;20044;-68
2023/03/22 04:33:46;;;;;;;2.15;0.70;;;19.50;60.50;;;;;;5039116;28;20047;-68
2023/03/22 04:36:16;;;;;;;1.80;0.60;;;19.50;60.50;;;;;;5071279;28;20041;-68
2023/03/22 04:38:42;;;;;;;1.65;0.70;;;19.50;60.50;;;;;;5073068;28;20139;-67
2023/03/22 04:41:08;;;;;;;1.88;0.75;;;19.60;60.50;;;;;;5052854;28;20510;-68
2023/03/22 04:43:34;;;;;;;1.67;0.82;;;19.60;60.50;;;;;;5033484;28;20519;-68
2023/03/22 04:46:03;;;;;;;2.10;0.80;;;19.60;60.50;;;;;;5052258;28;20084;-68
2023/03/22 04:48:28;;;;;;;1.73;0.60;;;19.60;60.50;;;;;;5052507;28;20099;-68
2023/03/22 04:50:55;;;;;;;1.10;0.60;;;19.60;60.50;;;;;;5051326;28;20045;-68
2023/03/22 04:53:26;;;;;;;2.33;0.80;;;19.60;60.50;;;;;;5034069;28;20065;-68
2023/03/22 04:55:55;;;;;;;1.77;0.60;;;19.60;60.50;;;;;;5052148;28;20480;-67
2023/03/22 04:58:22;;;;;;;1.83;0.80;;;19.70;60.50;;;;;;5051475;28;20041;-68
2023/03/22 05:00:49;;;;;;;1.33;0.70;;;19.70;60.50;;;;;;5056011;28;20468;-68
2023/03/22 05:03:18;;;;;;;1.65;0.60;;;19.70;60.40;;;;;;5065109;28;20075;-68
2023/03/22 05:05:49;;;;;;;2.00;0.80;;;19.70;60.40;;;;;;5070447;28;20044;-69
2023/03/22 05:08:15;;;;;;;2.30;0.70;;;19.70;60.50;;;;;;5071014;28;20499;-68
2023/03/22 05:10:40;;;;;;;1.40;0.60;;;19.70;60.40;;;;;;5070418;28;20166;-69
2023/03/22 05:13:06;;;;;;;2.58;1.00;;;19.70;60.40;;;;;;5055084;28;20136;-68
2023/03/22 05:15:32;;;;;;;1.45;0.60;;;19.70;60.40;;;;;;5033691;28;20041;-68
2023/03/22 05:17:58;;;;;;;1.67;0.60;;;19.70;60.40;;;;;;5054527;28;20048;-68
2023/03/22 05:20:23;;;;;;;2.13;0.77;;;19.70;60.40;;;;;;5071299;28;20377;-68
2023/03/22 05:22:49;;;;;;;1.17;0.50;;;19.70;60.30;;;;;;5071039;28;20048;-68
2023/03/22 05:25:15;;;;;;;1.38;0.60;;;19.80;60.40;;;;;;5071125;28;20048;-68
2023/03/22 05:27:40;;;;;;;2.53;0.70;;;19.80;60.40;;;;;;5063272;28;20045;-68
2023/03/22 05:30:06;;;;;;;1.42;0.70;;;19.80;60.30;;;;;;5054132;28;20049;-68
2023/03/22 05:32:32;;;;;;;2.15;0.63;;;19.80;60.40;;;;;;5053705;28;20047;-68
2023/03/22 05:35:03;;;;;;;2.13;0.70;;;19.80;60.30;;;;;;5036443;28;20045;-68
2023/03/22 05:37:29;;;;;;;2.67;0.77;;;19.80;60.40;;;;;;5054485;28;20064;-69
2023/03/22 05:39:54;;;;;;;1.02;0.68;;;19.80;60.30;;;;;;5053730;28;20152;-68
2023/03/22 05:42:20;;;;;;;1.38;0.60;;;19.80;60.30;;;;;;5054246;28;20519;-68
2023/03/22 05:44:45;;;;;;;1.80;0.73;;;19.80;60.30;;;;;;5054263;28;20048;-68
2023/03/22 05:47:11;;;;;;;2.63;0.77;;;19.80;60.30;;;;;;5035259;28;20059;-68
2023/03/22 05:49:37;;;;;;;1.20;0.60;;;19.90;60.40;;;;;;5054457;28;20037;-68
2023/03/22 05:52:04;;;;;;;2.03;0.85;;;19.90;60.30;;;;;;5053753;28;20079;-68
2023/03/22 05:54:30;;;;;;;2.20;0.80;;;19.90;60.30;;;;;;5053721;28;20045;-68
2023/03/22 05:56:56;;;;;;;1.63;0.80;;;19.90;60.30;;;;;;5036309;28;20095;-68
2023/03/22 05:59:21;;;;;;;2.33;0.68;;;19.90;60.30;;;;;;5036008;28;20055;-68
2023/03/22 06:01:47;;;;;;;1.23;0.70;;;19.90;60.30;;;;;;5053181;28;20076;-68
2023/03/22 06:04:12;;;;;;;1.10;0.43;;;19.90;60.40;;;;;;5054149;28;20077;-68
2023/03/22 06:06:38;;;;;;;1.48;0.70;;;19.90;60.30;;;;;;5054080;28;20048;-68
2023/03/22 06:09:04;;;;;;;1.58;0.70;;;19.90;60.30;;;;;;5015635;28;1066949;-68
2023/03/22 06:11:34;;;;;;;1.75;0.68;;;19.90;60.20;;;;;;5055195;28;20052;-68
2023/03/22 06:14:00;;;;;;;1.05;0.47;;;19.90;60.30;;;;;;5067494;28;20055;-68
2023/03/22 06:16:25;;;;;;;1.00;0.60;;;19.90;60.20;;;;;;5055221;28;20049;-68
2023/03/22 06:18:51;;;;;;;1.33;0.50;;;19.90;60.20;;;;;;5055556;28;20101;-68
2023/03/22 06:21:17;;;;;;;2.58;0.70;;;19.90;60.30;;;;;;5056197;28;20424;-68
2023/03/22 06:23:42;;;;;;;1.15;0.68;;;20.00;60.20;;;;;;5075062;28;20117;-68
2023/03/22 06:26:10;;;;;;;1.70;0.70;;;19.90;60.20;;;;;;5056315;28;20044;-67
2023/03/22 06:28:36;;;;;;;1.53;0.60;;;19.90;60.20;;;;;;5053996;28;20041;-68
2023/03/22 06:31:06;;;;;;;1.90;0.60;;;20.00;60.30;;;;;;5054806;28;20049;-67
2023/03/22 06:33:31;;;;;;;3.45;0.80;;;20.00;60.20;;;;;;5055125;28;20043;-66
2023/03/22 06:35:58;;;;;;;1.35;0.60;;;20.00;60.30;;;;;;5053438;28;20049;-67
2023/03/22 06:38:24;;;;;;;1.40;0.60;;;20.00;60.20;;;;;;5055002;28;20048;-67
2023/03/22 06:40:49;;;;;;;2.83;0.52;;;20.00;60.20;;;;;;5037005;28;20045;-67
2023/03/22 06:43:15;;;;;;;2.40;0.65;;;20.00;60.20;;;;;;5052865;28;20041;-66
2023/03/22 06:45:40;;;;;;;1.90;0.80;;;20.00;60.20;;;;;;5054946;28;20073;-67
2023/03/22 06:48:06;;;;;;;2.15;0.80;;;20.00;60.20;;;;;;5036261;28;20071;-64
2023/03/22 06:50:35;;;;;;;2.63;1.05;;;20.00;60.20;;;;;;5053571;28;20041;-65
2023/03/22 06:53:00;;;;;;;1.95;0.82;;;20.00;60.20;;;;;;5054328;28;20048;-71
2023/03/22 06:55:26;;;;;;;1.30;0.70;;;20.00;60.20;;;;;;5054567;28;20045;-66
2023/03/22 06:57:51;;;;;;;2.45;0.65;;;20.00;60.20;;;;;;5053322;28;20484;-67
2023/03/22 07:00:17;;;;;;;2.13;0.75;;;20.00;60.20;;;;;;5058890;28;20115;-67
2023/03/22 07:02:43;;;;;;;3.70;0.75;;;20.00;60.30;;;;;;5074197;28;20037;-73
2023/03/22 07:05:09;;;;;;;1.15;0.45;;;20.10;60.40;;;;;;5073230;28;20037;-67
2023/03/22 07:07:34;;;;;;;3.78;0.70;;;20.10;60.50;;;;;;5067778;28;20041;-67
2023/03/22 07:10:00;;;;;;;2.75;0.75;;;20.10;60.60;;;;;;5052305;28;20055;-68
2023/03/22 07:12:26;;;;;;;2.75;0.70;;;20.10;60.70;;;;;;5073034;28;20040;-66
2023/03/22 07:14:51;;;;;;;3.08;0.80;;;20.10;60.80;;;;;;5056166;28;20419;-65
2023/03/22 07:17:17;;;;;;;2.03;0.73;;;20.10;60.90;;;;;;5058326;28;20521;-67
2023/03/22 07:19:43;;;;;;;4.63;1.10;;;20.20;61.00;;;;;;5070415;28;20131;-66
2023/03/22 07:22:09;;;;;;;2.47;0.95;;;20.20;61.30;;;;;;5054620;28;20052;-63
2023/03/22 07:24:35;;;;;;;2.40;1.05;;;20.20;61.10;;;;;;5054814;28;20860;-64
2023/03/22 07:27:01;;;;;;;2.53;0.88;;;20.20;61.10;;;;;;5073351;28;20469;-64
2023/03/22 07:29:26;;;;;;;1.92;0.80;;;20.20;61.10;;;;;;5073211;28;20040;-63
2023/03/22 07:31:52;;;;;;;4.97;0.70;;;20.20;61.10;;;;;;5041646;28;20043;-67
2023/03/22 07:34:17;;;;;;;3.78;0.75;;;20.20;61.10;;;;;;5062710;28;20125;-67
2023/03/22 07:36:43;;;;;;;5.40;0.98;;;20.20;61.10;;;;;;5055699;28;20047;-67
2023/03/22 07:39:09;;;;;;;3.70;0.93;;;20.20;61.20;;;;;;5072217;28;20051;-67
2023/03/22 07:41:34;;;;;;;2.50;0.90;;;20.30;61.30;;;;;;5055449;28;20040;-66
2023/03/22 07:44:00;;;;;;;2.13;0.68;;;20.30;61.30;;;;;;5063462;28;20393;-67
2023/03/22 07:46:25;;;;;;;3.20;1.00;;;20.30;61.40;;;;;;5069534;28;20480;-66
2023/03/22 07:48:51;;;;;;;2.22;0.80;;;20.30;61.40;;;;;;5072001;28;20376;-65
2023/03/22 07:51:18;;;;;;;3.22;0.90;;;20.30;61.40;;;;;;5072899;28;20106;-66
2023/03/22 07:53:43;;;;;;;3.17;0.80;;;20.30;61.50;;;;;;5060131;28;20052;-65
2023/03/22 07:56:09;;;;;;;1.73;0.80;;;20.30;61.50;;;;;;5052775;28;20037;-68
2023/03/22 07:58:35;;;;;;;2.00;0.80;;;20.30;61.50;;;;;;5034682;28;20375;-69
2023/03/22 08:01:07;;;;;;;2.35;0.80;;;20.30;61.40;;;;;;5034467;28;20045;-69
2023/03/22 08:03:34;;;;;;;3.08;0.88;;;20.30;62.00;;;;;;5052732;28;20507;-67
2023/03/22 08:06:06;;;;;;;2.28;0.80;;;20.40;61.40;;;;;;5058241;28;20049;-67
2023/03/22 08:08:33;;;;;;;2.20;0.80;;;20.40;61.30;;;;;;5063501;28;20476;-69
2023/03/22 08:10:59;;;;;;;4.13;0.90;;;20.40;61.30;;;;;;5043003;28;20139;-66
2023/03/22 08:13:24;;;;;;;3.50;1.25;;;20.40;61.20;;;;;;5061130;28;20129;-66
2023/03/22 08:15:50;;;;;;;5.30;1.02;;;20.40;61.30;;;;;;5066359;28;20529;-66
2023/03/22 08:18:15;;;;;;;2.92;1.02;;;20.40;61.30;;;;;;5072111;28;20078;-66
2023/03/22 08:20:44;;;;;;;2.80;0.63;;;20.30;61.40;;;;;;5074214;28;20119;-66
2023/03/22 08:23:14;;;;;;;;;;;20.40;61.50;;;;;;5069437;28;20067;-66
2023/03/22 08:25:43;;;;;;;3.17;0.70;;;20.30;61.40;;;;;;5055040;28;19921;-67
2023/03/22 08:28:09;;;;;;;4.13;1.00;;;20.30;61.30;;;;;;5037179;28;20045;-67
2023/03/22 08:30:35;;;;;;;5.72;0.85;;;20.30;61.40;;;;;;5066483;28;20044;-64
2023/03/22 08:33:00;;;;;;;5.03;1.02;;;20.30;61.40;;;;;;5065118;28;20052;-66
2023/03/22 08:35:26;;;;;;;1.30;0.63;;;20.40;61.50;;;;;;5065880;28;20040;-66
2023/03/22 08:37:55;;;;;;;2.25;0.80;;;20.30;61.50;;;;;;5065428;28;20644;-69
2023/03/22 08:40:21;;;;;;;4.97;0.93;;;20.30;61.50;;;;;;5065883;28;20059;-68
2023/03/22 08:42:48;;;;;;;3.15;0.70;;;20.30;61.40;;;;;;5050013;28;20049;-68
2023/03/22 08:45:13;;;;;;;2.85;1.48;;;20.30;61.40;;;;;;5051533;28;20488;-68
2023/03/22 08:47:40;;;;;;;2.30;1.02;;;20.30;61.40;;;;;;5052032;28;20041;-68
2023/03/22 08:50:06;;;;;;;2.03;0.80;;;20.30;61.40;;;;;;5051534;28;20044;-67
2023/03/22 08:52:32;;;;;;;3.60;1.10;;;20.30;61.30;;;;;;5034251;28;20048;-67
2023/03/22 08:54:57;;;;;;;2.55;0.70;;;20.30;61.30;;;;;;5052170;28;20036;-68
2023/03/22 08:57:26;;;;;;;3.20;0.88;;;20.30;61.20;;;;;;5051264;28;20129;-67
2023/03/22 08:59:52;;;;;;;3.45;0.90;;;20.30;61.20;;;;;;5070243;28;20090;-67
2023/03/22 09:02:18;;;;;;;3.33;0.70;;;20.30;61.20;;;;;;5053890;28;20483;-67
2023/03/22 09:04:44;;;;;;;1.73;0.70;;;20.30;61.20;;;;;;5071206;28;20059;-67
2023/03/22 09:07:09;;;;;;;2.05;0.60;;;20.30;61.20;;;;;;5071637;28;20036;-68
2023/03/22 09:09:35;;;;;;;2.80;0.82;;;20.30;61.10;;;;;;5052344;28;20064;-67
2023/03/22 09:12:04;;;;;;;2.28;0.73;;;20.20;61.10;;;;;;5062839;28;20051;-67
2023/03/22 09:14:30;;;;;;;8.05;1.00;;;20.20;61.10;;;;;;5070619;28;20094;-67
2023/03/22 09:16:55;;;;;;;3.47;0.80;;;20.30;61.20;;;;;;5071523;28;20036;-68
2023/03/22 09:19:21;;;;;;;3.28;1.00;;;20.20;61.10;;;;;;5053433;28;20120;-67
2023/03/22 09:21:47;;;;;;;3.55;0.60;;;20.20;61.10;;;;;;5071788;28;20051;-67
2023/03/22 09:24:12;;;;;;;2.85;0.93;;;20.30;61.10;;;;;;5071023;28;20044;-67
2023/03/22 09:26:38;;;;;;;3.63;0.65;;;20.20;61.10;;;;;;5054017;28;20032;-67
2023/03/22 09:29:03;;;;;;;2.95;0.85;;;20.20;61.00;;;;;;5071402;28;20131;-69
2023/03/22 09:31:29;;;;;;;2.35;0.90;;;20.20;61.00;;;;;;5071352;28;20047;-68
2023/03/22 09:33:55;;;;;;;3.05;0.70;;;20.30;61.10;;;;;;5045725;28;20048;-69
2023/03/22 09:36:20;;;;;;;3.08;0.70;;;20.20;60.90;;;;;;5051723;28;20338;-68
2023/03/22 09:38:48;;;;;;;2.15;0.77;;;20.20;60.90;;;;;;5050984;28;20041;-69
2023/03/22 09:41:18;;;;;;;2.78;0.82;;;20.20;61.00;;;;;;5051362;28;20554;-70
2023/03/22 09:43:48;;;;;;;2.38;0.70;;;20.20;60.90;;;;;;5033885;28;20041;-70
2023/03/22 09:46:19;;;;;;;2.28;0.80;;;20.20;61.00;;;;;;5016460;28;20052;-69
2023/03/22 09:48:45;;;;;;;2.65;0.80;;;20.20;61.00;;;;;;5016825;28;20130;-69
2023/03/22 09:51:36;;;;;;;4.47;0.85;;;20.20;61.00;;;;;;5033604;28;20037;-70
2023/03/22 09:54:01;;;;;;;3.15;0.90;;;20.20;60.90;;;;;;5033019;28;20041;-68
2023/03/22 09:56:28;;;;;;;1.83;0.55;;;20.20;61.00;;;;;;5038845;28;20036;-68
2023/03/22 09:59:06;;;;;;;3.05;0.73;;;20.20;61.00;;;;;;5031297;28;20044;-68
2023/03/22 10:01:43;;;;;;;4.68;0.80;;;20.20;61.00;;;;;;5071230;28;20052;-67
2023/03/22 10:04:31;;;;;;;3.35;0.77;;;20.20;61.00;;;;;;5036217;28;20049;-67
2023/03/22 10:07:18;;;;;;;2.47;0.70;;;20.20;60.90;;;;;;5070621;28;20132;-68
2023/03/22 10:09:59;;;;;;;3.17;0.88;;;20.20;61.00;;;;;;5037279;28;20182;-67
2023/03/22 10:12:27;;;;;;;2.28;0.70;;;20.20;61.10;;;;;;5074239;28;20052;-67
2023/03/22 10:15:10;;;;;;;3.45;0.85;;;20.10;61.00;;;;;;5040423;28;20084;-67
2023/03/22 10:17:36;;;;;;;2.60;0.70;;;20.10;61.00;;;;;;5014178;28;20429;-66
2023/03/22 10:20:06;;;;;;;2.83;0.80;;;20.10;61.00;;;;;;5063379;28;20044;-67
2023/03/22 10:22:34;;;;;;;2.38;0.80;;;20.10;61.00;;;;;;5037858;28;20037;-67
2023/03/22 10:25:00;;;;;;;4.95;0.88;;;20.10;61.00;;;;;;5052255;28;20116;-67
2023/03/22 10:27:28;;;;;;;4.13;0.90;;;20.10;61.00;;;;;;5062735;28;20766;-67
2023/03/22 10:30:23;;;;;;;1.70;0.87;;;20.10;61.00;;;;;;5063593;28;20044;-67
2023/03/22 10:33:02;;;;;;;3.78;0.82;;;20.10;61.00;;;;;;5054361;28;20044;-66
2023/03/22 10:35:29;;;;;;;3.28;0.80;;;20.10;61.60;;;;;;5062693;28;20095;-67
2023/03/22 10:37:56;;;;;;;2.22;0.80;;;20.00;61.00;;;;;;5065046;28;20067;-68
2023/03/22 10:40:29;;;;;;;1.88;0.85;;;20.10;61.00;;;;;;5047181;28;20037;-67
2023/03/22 10:42:56;;;;;;;1.98;0.80;;;20.00;61.00;;;;;;5050997;28;20518;-67
2023/03/22 10:45:23;;;;;;;1.85;0.90;;;20.00;61.00;;;;;;5043930;28;20043;-67
2023/03/22 10:47:56;;;;;;;2.05;0.80;;;20.00;61.00;;;;;;5020027;28;20045;-67
2023/03/22 10:50:27;;;;;;;1.35;0.63;;;20.00;61.00;;;;;;5052135;28;20048;-67
2023/03/22 10:53:07;;;;;;;2.55;0.80;;;20.00;61.00;;;;;;5040641;28;20086;-67
2023/03/22 10:55:39;;;;;;;2.45;0.73;;;20.00;61.00;;;;;;5037854;28;20120;-67
2023/03/22 10:58:28;;;;;;;3.30;1.00;;;20.00;61.10;;;;;;5067594;28;20389;-66
2023/03/22 11:00:58;;;;;;;3.55;0.88;;;20.00;61.00;;;;;;5056099;28;20067;-66
2023/03/22 11:03:43;;;;;;;2.80;0.90;;;20.00;61.00;;;;;;5073467;28;20040;-68
2023/03/22 11:06:19;;;;;;;2.58;0.90;;;20.00;61.00;;;;;;5056133;28;20059;-67
2023/03/22 11:08:50;;;;;;;2.85;0.80;;;20.00;61.00;;;;;;5055962;28;20055;-67
2023/03/22 11:11:23;;;;;;;2.75;0.82;;;20.00;61.00;;;;;;5072673;28;20052;-68
2023/03/22 11:13:53;;;;;;;3.22;0.95;;;19.90;60.90;;;;;;5074025;28;20506;-67
2023/03/22 11:16:19;;;;;;;3.17;0.85;;;19.90;61.00;;;;;;5039299;28;20484;-67
2023/03/22 11:18:44;;;;;;;3.22;1.02;;;19.90;60.90;;;;;;5073129;28;20051;-67
2023/03/22 11:21:10;;;;;;;3.15;1.00;;;19.90;60.90;;;;;;5073712;28;20036;-68
2023/03/22 11:23:37;;;;;;;2.83;0.90;;;19.90;60.90;;;;;;5037397;28;20398;-66
2023/03/22 11:26:08;;;;;;;2.92;0.85;;;19.90;60.90;;;;;;5072886;28;20079;-67
2023/03/22 11:28:51;;;;;;;4.53;0.80;;;19.90;60.90;;;;;;5055972;28;20037;-68
2023/03/22 11:31:18;;;;;;;2.17;0.80;;;19.90;60.90;;;;;;5047334;28;20186;-68
2023/03/22 11:33:56;;;;;;;5.85;1.30;;;19.90;60.90;;;;;;5019373;28;20049;-69
2023/03/22 11:36:22;;;;;;;6.35;1.10;;;19.90;60.90;;;;;;5053119;28;20036;-68
2023/03/22 11:38:47;;;;;;;3.38;0.93;;;19.90;60.90;;;;;;5052916;28;20048;-69
2023/03/22 11:41:41;;;;;;;3.58;1.20;;;19.90;60.80;;;;;;5035477;28;20092;-69
2023/03/22 11:44:10;;;;;;;5.07;1.10;;;19.90;60.90;;;;;;5035055;28;20643;-68
2023/03/22 11:46:36;;;;;;;4.00;1.55;;;19.90;61.00;;;;;;5035017;28;20077;-68
2023/03/22 11:49:07;;;;;;;4.80;2.28;;;19.90;61.00;;;;;;5034982;28;20550;-69
2023/03/22 11:51:34;;;;;;;6.10;2.00;;;19.90;61.30;;;;;;5018388;28;20127;-69
2023/03/22 11:54:19;;;;;;;3.97;1.50;;;19.90;61.50;;;;;;5018598;28;20518;-68
2023/03/22 11:56:46;;;;;;;4.38;1.67;;;19.90;61.50;;;;;;5035094;28;20330;-69
2023/03/22 11:59:29;;;;;;;6.70;1.52;;;19.90;61.50;;;;;;5023361;28;20044;-69
2023/03/22 12:02:11;;;;;;;5.40;2.03;;;19.90;61.40;;;;;;5062060;28;20044;-68
2023/03/22 12:04:37;;;;;;;6.22;1.55;;;19.90;61.50;;;;;;5034712;28;20479;-73
2023/03/22 12:07:04;;;;;;;8.32;1.73;;;19.90;61.50;;;;;;5045021;28;20484;-72
2023/03/22 12:09:37;;;;;;;5.55;1.50;;;19.90;61.60;;;;;;5027004;28;20041;-73
2023/03/22 12:12:03;;;;;;;5.07;1.35;;;19.90;61.60;;;;;;5050159;28;20492;-72
2023/03/22 12:14:40;;;;;;;4.00;1.42;;;19.90;61.70;;;;;;5050973;28;20032;-72
2023/03/22 12:17:10;;;;;;;4.20;1.65;;;19.90;61.80;;;;;;5051197;28;20476;-69
2023/03/22 12:19:52;;;;;;;4.18;1.30;;;19.90;61.80;;;;;;5035436;28;20138;-70
2023/03/22 12:22:21;;;;;;;5.07;1.85;;;19.90;61.90;;;;;;5031892;28;20488;-73
2023/03/22 12:24:47;;;;;;;3.13;0.90;;;20.00;62.00;;;;;;5049054;28;20037;-71
2023/03/22 12:27:23;;;;;;;3.85;1.20;;;20.00;62.00;;;;;;5033579;28;20052;-73
2023/03/22 12:30:18;;;;;;;3.08;1.25;;;20.00;62.00;;;;;;5018209;28;20396;-72
2023/03/22 12:32:47;;;;;;;5.45;1.38;;;20.00;62.10;;;;;;5036276;28;20051;-73
2023/03/22 12:35:17;;;;;;;3.97;1.50;;;20.00;62.10;;;;;;5032810;28;20158;-70
2023/03/22 12:37:43;;;;;;;6.20;1.25;;;20.00;62.10;;;;;;5034697;28;20049;-72
2023/03/22 12:40:24;;;;;;;5.97;1.48;;;20.00;62.00;;;;;;5034576;28;20048;-70
2023/03/22 12:43:02;;;;;;;4.43;1.48;;;20.00;62.20;;;;;;5033958;28;20041;-71
2023/03/22 12:45:30;;;;;;;3.28;1.30;;;20.00;62.20;;;;;;5034717;28;20037;-72
2023/03/22 12:48:10;;;;;;;2.25;1.10;;;20.00;62.10;;;;;;5017173;28;20053;-71
2023/03/22 12:50:46;;;;;;;6.97;1.40;;;20.10;62.20;;;;;;5034794;28;20045;-70
2023/03/22 12:53:13;;;;;;;5.70;1.38;;;20.10;62.20;;;;;;5018024;28;20083;-71
2023/03/22 12:55:39;;;;;;;3.50;1.40;;;20.10;62.20;;;;;;5016988;28;20492;-70
2023/03/22 12:58:06;;;;;;;3.33;1.65;;;20.10;62.20;;;;;;5017223;28;20049;-72